Latest Coastal Weather Observations for Cato Island

IDQ60701

Issued at 8:05 pm EST Friday 31 October 2014 (issued every 10 minutes, with the page automatically refreshed every 10 minutes)

About coastal observations | Map of coastal stations | Coastal observations for QLD | Marine services | Other Formats
Station Details ID: 200601 Name: CATO ISLAND Lat: -23.25 Lon: 155.54 Height: 6.3 m
Data from the previous 72 hours. | See also: Recent months for locations in Queensland
Date/Time
EST
Temp

°C
Wind Pressure Rain
since 9am
mm
Weather Cloud Vis
km
Sea
Height
m
Swell
Dir
 
Speed
knots
Gust
knots
hPa Trend Height
m
Period
s
Dir
31/08:00pm 23.3 ENE 14 - 1016.4 - - - - - - - - -
31/07:00pm 23.4 ENE 14 - 1016.1 - - - - - - - - -
31/06:30pm 23.5 ENE 12 14 1015.7 - - - - - - - - -
31/06:00pm 23.5 ENE 12 13 1015.4 - - - - - - - - -
31/05:30pm 23.7 ENE 12 14 1015.3 - - - - - - - - -
31/05:00pm 23.9 E 13 15 1015.1 - - - - - - - - -
31/04:30pm 24.1 E 11 13 1014.9 - - - - - - - - -
31/04:00pm 24.0 E 11 13 1014.7 - - - - - - - - -
31/03:30pm 24.9 ENE 11 15 1014.8 - - - - - - - - -
31/03:00pm 24.7 E 10 12 1014.9 - - - - - - - - -
31/02:30pm 24.7 ENE 10 12 1015.1 - - - - - - - - -
31/02:00pm 24.8 E 12 14 1015.2 - - - - - - - - -
31/01:30pm 25.2 E 11 13 1015.5 - - - - - - - - -
31/01:00pm 25.6 ENE 11 14 1015.8 - - - - - - - - -
31/12:30pm 25.6 E 12 14 1015.8 - - - - - - - - -
31/12:00pm 24.9 E 11 13 1016.3 - - - - - - - - -
31/11:30am 25.2 E 9 11 1016.8 - - - - - - - - -
31/11:00am 25.2 E 9 11 1016.8 - - - - - - - - -
31/10:30am 25.7 E 9 11 1017.1 - - - - - - - - -
31/10:00am 25.2 E 10 12 1017.2 - - - - - - - - -
31/09:30am 24.6 ENE 9 11 1017.2 - - - - - - - - -
31/09:00am 25.5 ENE 11 13 1017.0 - - - - - - - - -
31/08:30am 25.0 ENE 11 13 1016.9 - - - - - - - - -
31/08:00am 24.7 ENE 12 14 1016.9 - - - - - - - - -
31/07:30am 24.3 ENE 12 14 1016.8 - - - - - - - - -
31/07:00am 24.3 ENE 10 13 1016.9 - - - - - - - - -
31/06:30am 23.8 ENE 2 5 1016.9 - - - - - - - - -
31/06:00am 23.5 ENE 11 13 1016.3 - - - - - - - - -
31/05:30am 23.0 ENE 10 11 1016.2 - - - - - - - - -
31/05:00am 23.0 E 9 11 1015.8 - - - - - - - - -
31/04:30am 22.9 ENE 10 12 1015.3 - - - - - - - - -
31/04:00am 22.8 ENE 10 13 1014.9 - - - - - - - - -
31/03:30am 22.8 E 10 12 1014.6 - - - - - - - - -
31/03:00am 22.8 ENE 11 13 1014.3 - - - - - - - - -
31/02:30am 22.9 E 10 12 1014.4 - - - - - - - - -
31/02:00am 22.9 ENE 11 12 1014.7 - - - - - - - - -
31/01:30am 23.0 ENE 10 12 1014.8 - - - - - - - - -
31/01:00am 23.1 E 9 11 1015.4 - - - - - - - - -
31/12:30am 23.1 E 9 10 1015.6 - - - - - - - - -
31/12:00am 23.2 E 9 11 1015.8 - - - - - - - - -
 
Date/Time
EST
Temp

°C
Wind Pressure Rain
since 9am
mm
Weather Cloud Vis
km
Sea
Height
m
Swell
Dir
 
Speed
knots
Gust
knots
hPa Trend Height
m
Period
s
Dir
30/11:30pm 23.3 E 7 8 1016.4 - - - - - - - - -
30/11:00pm 23.3 E 7 8 1016.4 - - - - - - - - -
30/10:30pm 23.3 ENE 8 9 1016.6 - - - - - - - - -
30/10:00pm 23.3 ENE 10 12 1016.2 - - - - - - - - -
30/09:30pm 23.5 ENE 12 13 1015.8 - - - - - - - - -
30/09:00pm 23.4 ENE 12 14 1015.7 - - - - - - - - -
30/08:30pm 23.4 ENE 10 11 1015.6 - - - - - - - - -
30/08:00pm 23.5 ENE 10 11 1015.6 - - - - - - - - -
30/07:30pm 23.6 ENE 10 11 1015.6 - - - - - - - - -
30/07:00pm 23.8 ENE 9 11 1015.4 - - - - - - - - -
30/06:30pm 24.0 ENE 8 10 1015.2 - - - - - - - - -
30/06:00pm 24.1 ENE 7 8 1015.1 - - - - - - - - -
30/05:30pm 24.3 E 6 7 1015.0 - - - - - - - - -
30/05:00pm 24.6 E 5 6 1014.7 - - - - - - - - -
30/04:30pm 24.9 E 4 5 1014.5 - - - - - - - - -
30/04:00pm 25.1 ESE 3 4 1014.4 - - - - - - - - -
30/03:30pm 25.3 SE 2 4 1014.4 - - - - - - - - -
30/03:00pm 25.6 ESE 3 4 1014.3 - - - - - - - - -
30/02:30pm 25.2 ENE 4 5 1014.5 - - - - - - - - -
30/02:00pm 25.6 NE 5 6 1014.6 - - - - - - - - -
30/01:30pm 25.9 E 1 3 1015.1 - - - - - - - - -
30/01:00pm 26.4 N 1 3 1015.3 - - - - - - - - -
30/12:30pm 26.6 NNE 1 4 1015.6 - - - - - - - - -
30/12:00pm 25.8 N 2 4 1016.1 - - - - - - - - -
30/11:30am 26.2 NNE 4 6 1016.4 - - - - - - - - -
30/11:00am 25.9 NE 4 6 1016.6 - - - - - - - - -
30/10:30am 25.6 NE 5 6 1016.6 - - - - - - - - -
30/10:00am 25.7 NE 4 6 1016.9 - - - - - - - - -
30/09:30am 25.4 NE 4 6 1017.2 - - - - - - - - -
30/09:00am 25.5 NE 4 6 1017.4 - - - - - - - - -
30/08:30am 25.5 NE 5 6 1017.5 - - - - - - - - -
30/08:00am 24.7 ENE 5 6 1017.3 - - - - - - - - -
30/07:30am 24.7 ENE 5 6 1016.9 - - - - - - - - -
30/07:00am 24.7 NE 5 7 1016.7 - - - - - - - - -
30/06:30am 24.2 ENE 4 4 1016.5 - - - - - - - - -
30/06:00am 23.9 CALM 0 3 1016.3 - - - - - - - - -
30/05:00am 21.8 ENE 2 4 1015.5 - - - - - - - - -
30/04:30am 21.9 NNE 2 3 1015.1 - - - - - - - - -
30/04:00am 22.0 NNE 3 4 1015.1 - - - - - - - - -
30/03:30am 22.0 NNE 4 6 1014.8 - - - - - - - - -
30/03:00am 22.2 NNE 4 7 1014.6 - - - - - - - - -
30/02:30am 22.3 N 5 7 1014.5 - - - - - - - - -
30/02:00am 22.3 N 5 7 1014.4 - - - - - - - - -
30/01:30am 22.4 N 6 8 1014.4 - - - - - - - - -
30/01:00am 22.5 N 6 7 1014.4 - - - - - - - - -
30/12:30am 22.6 N 6 7 1014.8 - - - - - - - - -
30/12:00am 22.8 N 5 7 1015.2 - - - - - - - - -
 
Date/Time
EST
Temp

°C
Wind Pressure Rain
since 9am
mm
Weather Cloud Vis
km
Sea
Height
m
Swell
Dir
 
Speed
knots
Gust
knots
hPa Trend Height
m
Period
s
Dir
29/11:30pm 22.8 N 5 7 1015.5 - - - - - - - - -
29/11:00pm 22.8 NNE 6 7 1015.7 - - - - - - - - -
29/10:30pm 22.9 NNE 6 8 1015.8 - - - - - - - - -
29/10:00pm 22.9 N 5 7 1015.9 - - - - - - - - -
29/09:30pm 22.8 N 5 6 1016.0 - - - - - - - - -
29/09:00pm 22.9 NNW 5 6 1016.0 - - - - - - - - -
29/08:30pm 23.0 NNW 6 8 1016.0 - - - - - - - - -
29/08:00pm 23.2 NNW 6 7 1015.9 - - - - - - - - -
29/07:30pm 23.3 NNW 7 8 1015.7 - - - - - - - - -
29/07:00pm 23.4 N 8 10 1015.5 - - - - - - - - -
29/06:30pm 23.4 NNW 8 10 1015.3 - - - - - - - - -
29/06:00pm 23.5 N 10 12 1015.0 - - - - - - - - -
29/05:30pm 23.8 N 11 13 1014.6 - - - - - - - - -
29/05:00pm 24.1 NNW 11 13 1014.3 - - - - - - - - -
29/04:30pm 24.5 N 12 14 1013.9 - - - - - - - - -
29/04:00pm 24.6 NNW 10 11 1013.9 - - - - - - - - -
29/03:30pm 24.9 NNW 10 12 1013.7 - - - - - - - - -
29/03:00pm 24.8 NNW 10 12 1013.7 - - - - - - - - -
29/02:00pm 25.3 NNW 12 14 1013.9 - - - - - - - - -
29/01:00pm 25.5 NNW 12 14 1014.2 - - - - - - - - -
29/12:30pm 25.6 NNW 12 15 1014.4 - - - - - - - - -
29/12:00pm 25.5 NNW 12 13 1014.7 - - - - - - - - -
29/11:30am 25.7 NNW 12 14 1014.8 - - - - - - - - -
29/11:00am 25.6 NNW 11 13 1015.2 - - - - - - - - -
29/10:30am 25.2 NNW 11 13 1015.5 - - - - - - - - -
29/10:00am 25.7 NNW 10 12 1015.5 - - - - - - - - -
29/09:30am 25.5 NW 10 12 1015.7 - - - - - - - - -
29/09:00am 24.8 NNW 12 14 1015.6 - - - - - - - - -
29/08:30am 25.0 N 12 14 1015.4 - - - - - - - - -
29/08:00am 25.0 N 13 15 1015.2 - - - - - - - - -
29/07:30am 24.2 N 14 16 1015.0 - - - - - - - - -
29/07:00am 24.0 N 14 16 1014.7 - - - - - - - - -
29/06:30am 23.7 N 14 16 1014.6 - - - - - - - - -
29/06:00am 23.4 NNW 13 15 1014.2 - - - - - - - - -
29/05:30am 23.0 NNW 14 16 1014.1 - - - - - - - - -
29/05:00am 22.9 NNW 14 16 1013.8 - - - - - - - - -
29/04:30am 22.9 NNW 15 17 1013.3 - - - - - - - - -
29/04:00am 22.9 NNW 15 17 1013.1 - - - - - - - - -
29/03:30am 22.8 NNW 15 17 1013.1 - - - - - - - - -
29/03:00am 22.8 NNW 14 17 1013.2 - - - - - - - - -
29/02:30am 22.8 NNW 15 16 1013.3 - - - - - - - - -
29/02:00am 22.8 NNW 14 16 1013.3 - - - - - - - - -
29/01:30am 22.9 NNW 15 17 1013.7 - - - - - - - - -
29/01:00am 22.9 NNW 16 18 1013.9 - - - - - - - - -
29/12:30am 22.9 NNW 16 18 1013.8 - - - - - - - - -
29/12:00am 22.9 NNW 17 19 1014.1 - - - - - - - - -
 
Date/Time
EST
Temp

°C
Wind Pressure Rain
since 9am
mm
Weather Cloud Vis
km
Sea
Height
m
Swell
Dir
 
Speed
knots
Gust
knots
hPa Trend Height
m
Period
s
Dir
28/11:30pm 22.9 N 15 18 1014.3 - - - - - - - - -
28/11:00pm 22.9 N 16 19 1014.4 - - - - - - - - -
28/10:30pm 22.9 N 15 18 1014.9 - - - - - - - - -
28/10:00pm 22.9 N 16 18 1014.9 - - - - - - - - -
28/09:30pm 22.9 N 15 17 1014.9 - - - - - - - - -
28/09:00pm 23.0 N 16 18 1014.9 - - - - - - - - -
28/08:30pm 23.1 N 16 18 1014.6 - - - - - - - - -

Other Formats:

Comma delimited format used in spreadsheet applications
http://www.bom.gov.au/fwo/IDQ60701/IDQ60701.94394.axf

JavaScript Object Notation format (JSON) in row-major order
http://www.bom.gov.au/fwo/IDQ60701/IDQ60701.94394.json